Amelia, LA

8:10 AM CDT on July 30, 2014 (GMT -0500)
North Berwick Station (KLABERWI2) Elev 0 ft | 29.72 °N, 91.24 °W | Change Station

Current weather conditions updated 9 seconds ago

Clear
Clear
77.2 °F
Feels Like 79 °F
N
3.0
Wind Variable Wind from NE
Gusts 5.0 mph

Today is forecast to be Warmer than yesterday.

Today
High -- | Low -- °F
--% Chance of Precip.
Yesterday
High -- | Low -- °F
Precip. -- in
6:23 AM 7:59 PM
Waxing Crescent, 11% visible
Pressure 30.10 in
Visibility 10.0 miles
Clouds Clear
Heat Index 79 °F
Dew Point 72 °F
Humidity 85%
Rainfall 0.00 in
Snow Depth Not available.
UV 0.9 out of 12
Pollen 3.20 out of 12
Air Quality Not available.
Flu Activity Not available.
METAR KPTN 301255Z AUTO 05006KT 10SM CLR 24/20 A3010 RMK AO1

More Conditions Fewer Conditions

Pressure 30.10 in
Visibility 10.0 miles
Clouds Clear
Heat Index 79 °F
Dew Point 72 °F
Humidity 85%
Rainfall 0.00 in
Snow Depth Not available.
UV 0.9 out of 12
Pollen 3.20 out of 12
Air Quality Not available.
Flu Activity Not available.
METAR KPTN 301255Z AUTO 05006KT 10SM CLR 24/20 A3010 RMK AO1

More Conditions Fewer Conditions

10-Day Weather Forecast

Almanac

Astronomy

Jul. 30, 2014 Rise Set
Actual Time 6:23 AM CDT 7:59 PM CDT
Civil Twilight 5:57 AM CDT 8:25 PM CDT
Nautical Twilight 5:26 AM CDT 8:56 PM CDT
Astronomical Twilight 4:53 AM CDT 9:28 PM CDT
Moon 9:36 AM CDT 10:03 PM CDT
Length of Visible Light 14h 27m
Length of Day
13h 35m
Tomorrow will be 1m 18s shorter.
Waxing Crescent, 11% of the Moon is Illuminated
Today
Waxing Crescent
Aug 3
First Quarter
Aug 10
Full
Aug 17
Last Quarter
Aug 25
New

Today's Extremes

State Highs State Lows

Community

WunderPhotos

Upload Photos

1,739,076 photos uploaded!

Nearby

Snow Depth

Station Depth Elevation
No new snow has been reported.

Earthquake Activity

City Distance Mag. Time & Date
No recent earthquake activity has been reported nearby.
Minimum magnitude displayed is 2.5.

Coastal Water Temperatures

Place Temperature
Fresh Water Canal Locks, LA 86.0 °F
Amerada Pass, LA 82.9 °F

Nearby Weather Stations

Station Location Temp. Heat Index Dew Point Humidity Wind Precip. Elev Updated Type
North Berwick Station, Berwick, LA 77.2 °F 79 °F 72 °F 85% NE  at  3.0 mph 0.00 in / hr 0 ft 8:10 AM CDT Rapid Fire

Show More Stations Show Fewer Stations